sensor_id;sensor_type;location;lat;lon;timestamp;temperature;humidity
18898;DHT22;9581;49.484;8.556;2023-07-24T00:01:23;20.70;99.90
18898;DHT22;9581;49.484;8.556;2023-07-24T00:03:49;20.80;99.90
18898;DHT22;9581;49.484;8.556;2023-07-24T00:06:16;20.70;99.90
18898;DHT22;9581;49.484;8.556;2023-07-24T00:08:44;20.80;99.90
18898;DHT22;9581;49.484;8.556;2023-07-24T00:11:11;20.70;99.90
18898;DHT22;9581;49.484;8.556;2023-07-24T00:13:38;20.70;99.90
18898;DHT22;9581;49.484;8.556;2023-07-24T00:16:07;20.70;99.90
18898;DHT22;9581;49.484;8.556;2023-07-24T00:18:34;20.80;99.90
18898;DHT22;9581;49.484;8.556;2023-07-24T00:21:00;20.80;99.90
18898;DHT22;9581;49.484;8.556;2023-07-24T00:23:27;20.80;99.90
18898;DHT22;9581;49.484;8.556;2023-07-24T00:25:55;20.70;99.90
18898;DHT22;9581;49.484;8.556;2023-07-24T00:28:22;20.70;99.90
18898;DHT22;9581;49.484;8.556;2023-07-24T00:30:49;20.70;99.90
18898;DHT22;9581;49.484;8.556;2023-07-24T00:33:16;20.60;99.90
18898;DHT22;9581;49.484;8.556;2023-07-24T00:35:42;20.50;99.90
18898;DHT22;9581;49.484;8.556;2023-07-24T00:38:09;20.50;99.90
18898;DHT22;9581;49.484;8.556;2023-07-24T00:40:36;20.40;99.90
18898;DHT22;9581;49.484;8.556;2023-07-24T00:43:04;20.50;99.90
18898;DHT22;9581;49.484;8.556;2023-07-24T00:45:31;20.40;99.90
18898;DHT22;9581;49.484;8.556;2023-07-24T00:47:59;20.30;99.90
18898;DHT22;9581;49.484;8.556;2023-07-24T00:50:27;20.30;99.90
18898;DHT22;9581;49.484;8.556;2023-07-24T00:52:54;20.30;99.90
18898;DHT22;9581;49.484;8.556;2023-07-24T00:55:21;20.30;99.90
18898;DHT22;9581;49.484;8.556;2023-07-24T00:57:48;20.30;99.90
18898;DHT22;9581;49.484;8.556;2023-07-24T01:00:17;20.20;99.90
18898;DHT22;9581;49.484;8.556;2023-07-24T01:02:44;20.30;99.90
18898;DHT22;9581;49.484;8.556;2023-07-24T01:05:13;20.20;99.90
18898;DHT22;9581;49.484;8.556;2023-07-24T01:07:41;20.20;99.90
18898;DHT22;9581;49.484;8.556;2023-07-24T01:10:08;20.30;99.90
18898;DHT22;9581;49.484;8.556;2023-07-24T01:12:39;20.30;99.90
18898;DHT22;9581;49.484;8.556;2023-07-24T01:15:10;20.30;99.90
18898;DHT22;9581;49.484;8.556;2023-07-24T01:17:46;20.30;99.90
18898;DHT22;9581;49.484;8.556;2023-07-24T01:20:16;20.30;99.90
18898;DHT22;9581;49.484;8.556;2023-07-24T01:23:00;20.40;99.90
18898;DHT22;9581;49.484;8.556;2023-07-24T01:25:32;20.50;99.90
18898;DHT22;9581;49.484;8.556;2023-07-24T01:28:06;20.50;99.90
18898;DHT22;9581;49.484;8.556;2023-07-24T01:30:34;20.60;99.90
18898;DHT22;9581;49.484;8.556;2023-07-24T01:33:00;20.30;99.90
18898;DHT22;9581;49.484;8.556;2023-07-24T01:35:27;20.20;99.90
18898;DHT22;9581;49.484;8.556;2023-07-24T01:37:56;20.20;99.90
18898;DHT22;9581;49.484;8.556;2023-07-24T01:40:24;20.20;99.90
18898;DHT22;9581;49.484;8.556;2023-07-24T01:42:51;20.20;99.90
18898;DHT22;9581;49.484;8.556;2023-07-24T01:45:19;20.20;99.90
18898;DHT22;9581;49.484;8.556;2023-07-24T01:47:46;20.20;99.90
18898;DHT22;9581;49.484;8.556;2023-07-24T01:50:12;20.20;99.90
18898;DHT22;9581;49.484;8.556;2023-07-24T01:52:39;20.20;99.90
18898;DHT22;9581;49.484;8.556;2023-07-24T01:55:07;20.30;99.90
18898;DHT22;9581;49.484;8.556;2023-07-24T01:57:34;20.40;99.90
18898;DHT22;9581;49.484;8.556;2023-07-24T02:00:01;20.30;99.90
18898;DHT22;9581;49.484;8.556;2023-07-24T02:02:29;20.30;99.90
18898;DHT22;9581;49.484;8.556;2023-07-24T02:04:56;20.30;99.90
18898;DHT22;9581;49.484;8.556;2023-07-24T02:07:23;20.20;99.90
18898;DHT22;9581;49.484;8.556;2023-07-24T02:09:49;20.20;99.90
18898;DHT22;9581;49.484;8.556;2023-07-24T02:12:17;20.20;99.90
18898;DHT22;9581;49.484;8.556;2023-07-24T02:14:43;20.10;99.90
18898;DHT22;9581;49.484;8.556;2023-07-24T02:17:10;20.10;99.90
18898;DHT22;9581;49.484;8.556;2023-07-24T02:19:38;20.20;99.90
18898;DHT22;9581;49.484;8.556;2023-07-24T02:22:05;20.20;99.90
18898;DHT22;9581;49.484;8.556;2023-07-24T02:24:32;20.20;99.90
18898;DHT22;9581;49.484;8.556;2023-07-24T02:26:59;20.10;99.90
18898;DHT22;9581;49.484;8.556;2023-07-24T02:29:26;20.20;99.90
18898;DHT22;9581;49.484;8.556;2023-07-24T02:31:54;20.10;99.90
18898;DHT22;9581;49.484;8.556;2023-07-24T02:34:21;20.10;99.90
18898;DHT22;9581;49.484;8.556;2023-07-24T02:39:18;20.00;99.90
18898;DHT22;9581;49.484;8.556;2023-07-24T02:41:45;20.00;99.90
18898;DHT22;9581;49.484;8.556;2023-07-24T02:44:12;20.10;99.90
18898;DHT22;9581;49.484;8.556;2023-07-24T02:46:39;20.20;99.90
18898;DHT22;9581;49.484;8.556;2023-07-24T02:49:05;20.40;99.90
18898;DHT22;9581;49.484;8.556;2023-07-24T02:51:32;20.40;99.90
18898;DHT22;9581;49.484;8.556;2023-07-24T02:54:00;20.40;99.90
18898;DHT22;9581;49.484;8.556;2023-07-24T02:56:27;20.40;99.90
18898;DHT22;9581;49.484;8.556;2023-07-24T02:58:54;20.40;99.90
18898;DHT22;9581;49.484;8.556;2023-07-24T03:01:21;20.40;99.90
18898;DHT22;9581;49.484;8.556;2023-07-24T03:03:47;20.40;99.90
18898;DHT22;9581;49.484;8.556;2023-07-24T03:06:14;20.40;99.90
18898;DHT22;9581;49.484;8.556;2023-07-24T03:08:41;20.40;99.90
18898;DHT22;9581;49.484;8.556;2023-07-24T03:11:10;20.40;99.90
18898;DHT22;9581;49.484;8.556;2023-07-24T03:13:36;20.50;99.90
18898;DHT22;9581;49.484;8.556;2023-07-24T03:16:06;20.60;99.90
18898;DHT22;9581;49.484;8.556;2023-07-24T03:18:33;20.40;99.90
18898;DHT22;9581;49.484;8.556;2023-07-24T03:21:00;20.40;99.90
18898;DHT22;9581;49.484;8.556;2023-07-24T03:23:27;20.50;99.90
18898;DHT22;9581;49.484;8.556;2023-07-24T03:25:53;20.50;99.90
18898;DHT22;9581;49.484;8.556;2023-07-24T03:28:22;20.60;99.90
18898;DHT22;9581;49.484;8.556;2023-07-24T03:30:48;20.60;99.90
18898;DHT22;9581;49.484;8.556;2023-07-24T03:33:16;20.60;99.90
18898;DHT22;9581;49.484;8.556;2023-07-24T03:35:43;20.70;99.90
18898;DHT22;9581;49.484;8.556;2023-07-24T03:38:09;20.70;99.90
18898;DHT22;9581;49.484;8.556;2023-07-24T03:40:36;20.70;99.90
18898;DHT22;9581;49.484;8.556;2023-07-24T03:43:03;20.80;99.90
18898;DHT22;9581;49.484;8.556;2023-07-24T03:45:31;20.60;99.90
18898;DHT22;9581;49.484;8.556;2023-07-24T03:47:58;20.60;99.90
18898;DHT22;9581;49.484;8.556;2023-07-24T03:50:25;20.60;99.90
18898;DHT22;9581;49.484;8.556;2023-07-24T03:52:52;20.40;99.90
18898;DHT22;9581;49.484;8.556;2023-07-24T03:55:19;20.60;99.90
18898;DHT22;9581;49.484;8.556;2023-07-24T03:57:45;20.70;99.90
18898;DHT22;9581;49.484;8.556;2023-07-24T04:00:13;20.80;99.90
18898;DHT22;9581;49.484;8.556;2023-07-24T04:02:41;20.70;99.90
18898;DHT22;9581;49.484;8.556;2023-07-24T04:05:08;20.50;99.90
18898;DHT22;9581;49.484;8.556;2023-07-24T04:07:35;20.50;99.90
18898;DHT22;9581;49.484;8.556;2023-07-24T04:10:03;20.70;99.90
18898;DHT22;9581;49.484;8.556;2023-07-24T04:12:30;20.50;99.90
18898;DHT22;9581;49.484;8.556;2023-07-24T04:14:56;20.60;99.90
18898;DHT22;9581;49.484;8.556;2023-07-24T04:17:23;20.60;99.90
18898;DHT22;9581;49.484;8.556;2023-07-24T04:19:51;20.80;99.90
18898;DHT22;9581;49.484;8.556;2023-07-24T04:22:18;21.10;99.90
18898;DHT22;9581;49.484;8.556;2023-07-24T04:24:45;20.60;99.90
18898;DHT22;9581;49.484;8.556;2023-07-24T04:27:12;20.40;99.90
18898;DHT22;9581;49.484;8.556;2023-07-24T04:29:39;20.40;99.90
18898;DHT22;9581;49.484;8.556;2023-07-24T04:32:06;20.40;99.90
18898;DHT22;9581;49.484;8.556;2023-07-24T04:34:33;20.20;99.90
18898;DHT22;9581;49.484;8.556;2023-07-24T04:37:01;20.10;99.90
18898;DHT22;9581;49.484;8.556;2023-07-24T04:39:28;20.10;99.90
18898;DHT22;9581;49.484;8.556;2023-07-24T04:41:54;20.10;99.90
18898;DHT22;9581;49.484;8.556;2023-07-24T04:44:21;20.20;99.90
18898;DHT22;9581;49.484;8.556;2023-07-24T04:46:48;20.20;99.90
18898;DHT22;9581;49.484;8.556;2023-07-24T04:49:15;20.30;99.90
18898;DHT22;9581;49.484;8.556;2023-07-24T04:51:42;20.20;99.90
18898;DHT22;9581;49.484;8.556;2023-07-24T04:54:10;20.20;99.90
18898;DHT22;9581;49.484;8.556;2023-07-24T04:56:37;20.20;99.90
18898;DHT22;9581;49.484;8.556;2023-07-24T04:59:04;20.40;99.90
18898;DHT22;9581;49.484;8.556;2023-07-24T05:01:31;20.50;99.90
18898;DHT22;9581;49.484;8.556;2023-07-24T05:03:57;20.40;99.90
18898;DHT22;9581;49.484;8.556;2023-07-24T05:06:24;20.40;99.90
18898;DHT22;9581;49.484;8.556;2023-07-24T05:08:52;20.50;99.90
18898;DHT22;9581;49.484;8.556;2023-07-24T05:11:20;20.70;99.90
18898;DHT22;9581;49.484;8.556;2023-07-24T05:13:47;20.50;99.90
18898;DHT22;9581;49.484;8.556;2023-07-24T05:16:14;20.70;99.90
18898;DHT22;9581;49.484;8.556;2023-07-24T05:18:41;20.60;99.90
18898;DHT22;9581;49.484;8.556;2023-07-24T05:21:07;20.50;99.90
18898;DHT22;9581;49.484;8.556;2023-07-24T05:23:34;20.70;99.90
18898;DHT22;9581;49.484;8.556;2023-07-24T05:26:02;20.50;99.90
18898;DHT22;9581;49.484;8.556;2023-07-24T05:28:32;20.50;99.90
18898;DHT22;9581;49.484;8.556;2023-07-24T05:31:00;20.60;99.90
18898;DHT22;9581;49.484;8.556;2023-07-24T05:33:27;20.60;99.90
18898;DHT22;9581;49.484;8.556;2023-07-24T05:35:57;20.70;99.90
18898;DHT22;9581;49.484;8.556;2023-07-24T05:38:24;20.70;99.90
18898;DHT22;9581;49.484;8.556;2023-07-24T05:40:54;20.80;99.90
18898;DHT22;9581;49.484;8.556;2023-07-24T05:43:21;21.00;99.90
18898;DHT22;9581;49.484;8.556;2023-07-24T05:45:49;21.00;99.90
18898;DHT22;9581;49.484;8.556;2023-07-24T05:48:16;20.90;99.90
18898;DHT22;9581;49.484;8.556;2023-07-24T05:50:43;20.90;99.90
18898;DHT22;9581;49.484;8.556;2023-07-24T05:53:10;20.80;99.90
18898;DHT22;9581;49.484;8.556;2023-07-24T05:55:37;21.00;99.90
18898;DHT22;9581;49.484;8.556;2023-07-24T05:58:03;20.90;99.90
18898;DHT22;9581;49.484;8.556;2023-07-24T06:00:30;21.10;99.90
18898;DHT22;9581;49.484;8.556;2023-07-24T06:02:58;21.00;99.90
18898;DHT22;9581;49.484;8.556;2023-07-24T06:05:25;21.20;99.90
18898;DHT22;9581;49.484;8.556;2023-07-24T06:07:52;20.90;99.90
18898;DHT22;9581;49.484;8.556;2023-07-24T06:10:19;20.90;99.90
18898;DHT22;9581;49.484;8.556;2023-07-24T06:12:45;21.00;99.90
18898;DHT22;9581;49.484;8.556;2023-07-24T06:15:12;21.10;99.90
18898;DHT22;9581;49.484;8.556;2023-07-24T06:17:39;21.00;99.90
18898;DHT22;9581;49.484;8.556;2023-07-24T06:20:08;20.90;99.90
18898;DHT22;9581;49.484;8.556;2023-07-24T06:22:35;20.90;99.90
18898;DHT22;9581;49.484;8.556;2023-07-24T06:25:02;20.90;99.90
18898;DHT22;9581;49.484;8.556;2023-07-24T06:27:29;21.00;99.90
18898;DHT22;9581;49.484;8.556;2023-07-24T06:29:55;20.90;99.90
18898;DHT22;9581;49.484;8.556;2023-07-24T06:32:22;21.10;99.90
18898;DHT22;9581;49.484;8.556;2023-07-24T06:34:49;21.10;99.90
18898;DHT22;9581;49.484;8.556;2023-07-24T06:37:17;21.20;99.90
18898;DHT22;9581;49.484;8.556;2023-07-24T06:39:44;21.10;99.90
18898;DHT22;9581;49.484;8.556;2023-07-24T06:42:11;21.10;99.90
18898;DHT22;9581;49.484;8.556;2023-07-24T06:44:38;21.20;99.90
18898;DHT22;9581;49.484;8.556;2023-07-24T06:47:05;21.10;99.90
18898;DHT22;9581;49.484;8.556;2023-07-24T06:49:31;21.30;99.90
18898;DHT22;9581;49.484;8.556;2023-07-24T06:51:58;21.20;99.90
18898;DHT22;9581;49.484;8.556;2023-07-24T06:54:26;21.20;99.90
18898;DHT22;9581;49.484;8.556;2023-07-24T06:56:53;21.30;99.90
18898;DHT22;9581;49.484;8.556;2023-07-24T06:59:19;21.30;99.90
18898;DHT22;9581;49.484;8.556;2023-07-24T07:01:46;21.40;99.90
18898;DHT22;9581;49.484;8.556;2023-07-24T07:04:13;21.60;99.90
18898;DHT22;9581;49.484;8.556;2023-07-24T07:06:40;21.60;99.90
18898;DHT22;9581;49.484;8.556;2023-07-24T07:09:07;21.80;99.90
18898;DHT22;9581;49.484;8.556;2023-07-24T07:11:35;21.90;99.90
18898;DHT22;9581;49.484;8.556;2023-07-24T07:14:02;21.90;99.90
18898;DHT22;9581;49.484;8.556;2023-07-24T07:16:28;22.00;99.90
18898;DHT22;9581;49.484;8.556;2023-07-24T07:18:55;22.00;99.90
18898;DHT22;9581;49.484;8.556;2023-07-24T07:21:22;22.40;99.90
18898;DHT22;9581;49.484;8.556;2023-07-24T07:23:49;22.20;99.90
18898;DHT22;9581;49.484;8.556;2023-07-24T07:26:16;22.50;99.90
18898;DHT22;9581;49.484;8.556;2023-07-24T07:28:44;22.90;99.90
18898;DHT22;9581;49.484;8.556;2023-07-24T07:31:11;22.60;99.90
18898;DHT22;9581;49.484;8.556;2023-07-24T07:33:38;22.80;99.90
18898;DHT22;9581;49.484;8.556;2023-07-24T07:36:05;23.10;99.90
18898;DHT22;9581;49.484;8.556;2023-07-24T07:38:32;23.30;99.90
18898;DHT22;9581;49.484;8.556;2023-07-24T07:41:03;23.20;99.90
18898;DHT22;9581;49.484;8.556;2023-07-24T07:43:30;23.10;99.90
18898;DHT22;9581;49.484;8.556;2023-07-24T07:45:58;23.10;99.90
18898;DHT22;9581;49.484;8.556;2023-07-24T07:48:25;23.00;99.90
18898;DHT22;9581;49.484;8.556;2023-07-24T07:50:52;22.80;99.90
18898;DHT22;9581;49.484;8.556;2023-07-24T07:53:19;22.90;99.90
18898;DHT22;9581;49.484;8.556;2023-07-24T07:55:45;23.00;99.90
18898;DHT22;9581;49.484;8.556;2023-07-24T07:58:12;23.30;99.90
18898;DHT22;9581;49.484;8.556;2023-07-24T08:00:39;23.80;99.90
18898;DHT22;9581;49.484;8.556;2023-07-24T08:03:07;23.80;99.90
18898;DHT22;9581;49.484;8.556;2023-07-24T08:05:34;23.50;99.90
18898;DHT22;9581;49.484;8.556;2023-07-24T08:08:01;23.20;99.90
18898;DHT22;9581;49.484;8.556;2023-07-24T08:10:28;23.30;99.90
18898;DHT22;9581;49.484;8.556;2023-07-24T08:12:54;23.20;99.90
18898;DHT22;9581;49.484;8.556;2023-07-24T08:15:21;23.40;99.90
18898;DHT22;9581;49.484;8.556;2023-07-24T08:17:48;23.50;99.90
18898;DHT22;9581;49.484;8.556;2023-07-24T08:20:16;23.50;99.90
18898;DHT22;9581;49.484;8.556;2023-07-24T08:22:43;23.40;99.90
18898;DHT22;9581;49.484;8.556;2023-07-24T08:25:10;23.20;99.90
18898;DHT22;9581;49.484;8.556;2023-07-24T08:27:36;23.30;99.90
18898;DHT22;9581;49.484;8.556;2023-07-24T08:30:04;23.30;99.90
18898;DHT22;9581;49.484;8.556;2023-07-24T08:32:31;23.50;99.90
18898;DHT22;9581;49.484;8.556;2023-07-24T08:34:57;23.30;99.90
18898;DHT22;9581;49.484;8.556;2023-07-24T08:37:26;23.30;99.90
18898;DHT22;9581;49.484;8.556;2023-07-24T08:39:53;23.40;99.90
18898;DHT22;9581;49.484;8.556;2023-07-24T08:42:19;23.50;99.90
18898;DHT22;9581;49.484;8.556;2023-07-24T08:44:47;23.60;99.90
18898;DHT22;9581;49.484;8.556;2023-07-24T08:47:15;23.70;99.90
18898;DHT22;9581;49.484;8.556;2023-07-24T08:49:42;23.50;99.90
18898;DHT22;9581;49.484;8.556;2023-07-24T08:52:09;23.50;99.90
18898;DHT22;9581;49.484;8.556;2023-07-24T08:54:39;23.80;99.90
18898;DHT22;9581;49.484;8.556;2023-07-24T08:57:06;23.80;99.90
18898;DHT22;9581;49.484;8.556;2023-07-24T08:59:34;23.50;99.90
18898;DHT22;9581;49.484;8.556;2023-07-24T09:02:01;23.40;99.90
18898;DHT22;9581;49.484;8.556;2023-07-24T09:04:28;23.60;99.90
18898;DHT22;9581;49.484;8.556;2023-07-24T09:06:56;23.70;99.90
18898;DHT22;9581;49.484;8.556;2023-07-24T09:09:28;23.40;99.90
18898;DHT22;9581;49.484;8.556;2023-07-24T09:11:56;23.20;99.90
18898;DHT22;9581;49.484;8.556;2023-07-24T09:14:25;23.40;99.90
18898;DHT22;9581;49.484;8.556;2023-07-24T09:17:02;23.50;99.90
18898;DHT22;9581;49.484;8.556;2023-07-24T09:19:29;23.50;99.90
18898;DHT22;9581;49.484;8.556;2023-07-24T09:21:56;23.40;99.90
18898;DHT22;9581;49.484;8.556;2023-07-24T09:24:22;23.50;99.90
18898;DHT22;9581;49.484;8.556;2023-07-24T09:26:51;23.50;99.90
18898;DHT22;9581;49.484;8.556;2023-07-24T09:29:19;23.50;99.90
18898;DHT22;9581;49.484;8.556;2023-07-24T09:31:46;23.40;99.90
18898;DHT22;9581;49.484;8.556;2023-07-24T09:34:15;23.30;99.90
18898;DHT22;9581;49.484;8.556;2023-07-24T09:36:42;23.20;99.90
18898;DHT22;9581;49.484;8.556;2023-07-24T09:39:09;23.10;99.90
18898;DHT22;9581;49.484;8.556;2023-07-24T09:41:38;23.10;99.90
18898;DHT22;9581;49.484;8.556;2023-07-24T09:44:05;23.20;99.90
18898;DHT22;9581;49.484;8.556;2023-07-24T09:46:33;23.10;99.90
18898;DHT22;9581;49.484;8.556;2023-07-24T09:49:00;23.00;99.90
18898;DHT22;9581;49.484;8.556;2023-07-24T09:51:29;23.10;99.90
18898;DHT22;9581;49.484;8.556;2023-07-24T09:54:03;23.20;99.90
18898;DHT22;9581;49.484;8.556;2023-07-24T09:56:33;23.00;99.90
18898;DHT22;9581;49.484;8.556;2023-07-24T09:59:02;23.00;99.90
18898;DHT22;9581;49.484;8.556;2023-07-24T10:01:32;22.90;99.90
18898;DHT22;9581;49.484;8.556;2023-07-24T10:03:59;22.90;99.90
18898;DHT22;9581;49.484;8.556;2023-07-24T10:06:28;22.90;99.90
18898;DHT22;9581;49.484;8.556;2023-07-24T10:08:56;23.00;99.90
18898;DHT22;9581;49.484;8.556;2023-07-24T10:11:24;23.00;99.90
18898;DHT22;9581;49.484;8.556;2023-07-24T10:13:53;22.90;99.90
18898;DHT22;9581;49.484;8.556;2023-07-24T10:16:20;22.90;99.90
18898;DHT22;9581;49.484;8.556;2023-07-24T10:18:48;22.90;99.90
18898;DHT22;9581;49.484;8.556;2023-07-24T10:21:16;22.90;99.90
18898;DHT22;9581;49.484;8.556;2023-07-24T10:23:44;22.80;99.90
18898;DHT22;9581;49.484;8.556;2023-07-24T10:26:12;22.80;99.90
18898;DHT22;9581;49.484;8.556;2023-07-24T10:28:40;22.80;99.90
18898;DHT22;9581;49.484;8.556;2023-07-24T10:31:18;22.90;99.90
18898;DHT22;9581;49.484;8.556;2023-07-24T10:33:45;22.90;99.90
18898;DHT22;9581;49.484;8.556;2023-07-24T10:36:17;23.00;99.90
18898;DHT22;9581;49.484;8.556;2023-07-24T10:38:45;22.90;99.90
18898;DHT22;9581;49.484;8.556;2023-07-24T10:41:13;23.00;99.90
18898;DHT22;9581;49.484;8.556;2023-07-24T10:43:41;23.30;99.90
18898;DHT22;9581;49.484;8.556;2023-07-24T10:46:08;23.30;99.90
18898;DHT22;9581;49.484;8.556;2023-07-24T10:48:36;23.40;99.90
18898;DHT22;9581;49.484;8.556;2023-07-24T10:51:06;23.40;99.90
18898;DHT22;9581;49.484;8.556;2023-07-24T10:53:36;23.50;99.90
18898;DHT22;9581;49.484;8.556;2023-07-24T10:56:03;23.40;99.90
18898;DHT22;9581;49.484;8.556;2023-07-24T10:58:31;23.60;99.90
18898;DHT22;9581;49.484;8.556;2023-07-24T11:00:57;23.60;99.90
18898;DHT22;9581;49.484;8.556;2023-07-24T11:03:25;23.80;99.90
18898;DHT22;9581;49.484;8.556;2023-07-24T11:05:52;23.50;99.90
18898;DHT22;9581;49.484;8.556;2023-07-24T11:08:20;23.50;99.90
18898;DHT22;9581;49.484;8.556;2023-07-24T11:10:50;23.60;99.90
18898;DHT22;9581;49.484;8.556;2023-07-24T11:13:18;23.60;99.90
18898;DHT22;9581;49.484;8.556;2023-07-24T11:15:45;24.00;99.90
18898;DHT22;9581;49.484;8.556;2023-07-24T11:18:12;24.00;99.90
18898;DHT22;9581;49.484;8.556;2023-07-24T11:20:43;24.10;99.90
18898;DHT22;9581;49.484;8.556;2023-07-24T11:23:10;24.30;99.90
18898;DHT22;9581;49.484;8.556;2023-07-24T11:25:37;24.20;99.90
18898;DHT22;9581;49.484;8.556;2023-07-24T11:28:06;24.40;99.90
18898;DHT22;9581;49.484;8.556;2023-07-24T11:30:34;24.50;99.90
18898;DHT22;9581;49.484;8.556;2023-07-24T11:33:02;24.30;99.90
18898;DHT22;9581;49.484;8.556;2023-07-24T11:35:30;24.20;99.90
18898;DHT22;9581;49.484;8.556;2023-07-24T11:37:57;24.30;99.90
18898;DHT22;9581;49.484;8.556;2023-07-24T11:40:31;24.40;99.90
18898;DHT22;9581;49.484;8.556;2023-07-24T11:42:58;24.40;99.90
18898;DHT22;9581;49.484;8.556;2023-07-24T11:45:25;24.10;99.90
18898;DHT22;9581;49.484;8.556;2023-07-24T11:47:52;23.70;99.90
18898;DHT22;9581;49.484;8.556;2023-07-24T11:50:21;23.80;99.90
18898;DHT22;9581;49.484;8.556;2023-07-24T11:52:50;23.80;99.90
18898;DHT22;9581;49.484;8.556;2023-07-24T11:55:19;23.80;99.90
18898;DHT22;9581;49.484;8.556;2023-07-24T11:57:56;23.80;99.90
18898;DHT22;9581;49.484;8.556;2023-07-24T12:00:24;23.80;99.90
18898;DHT22;9581;49.484;8.556;2023-07-24T12:02:52;25.20;99.90
18898;DHT22;9581;49.484;8.556;2023-07-24T12:05:19;25.70;99.90
18898;DHT22;9581;49.484;8.556;2023-07-24T12:07:46;24.80;99.90
18898;DHT22;9581;49.484;8.556;2023-07-24T12:10:24;24.60;99.90
18898;DHT22;9581;49.484;8.556;2023-07-24T12:12:51;24.60;99.90
18898;DHT22;9581;49.484;8.556;2023-07-24T12:15:18;24.50;99.90
18898;DHT22;9581;49.484;8.556;2023-07-24T12:17:46;24.20;99.90
18898;DHT22;9581;49.484;8.556;2023-07-24T12:20:13;24.10;99.90
18898;DHT22;9581;49.484;8.556;2023-07-24T12:22:40;24.10;99.90
18898;DHT22;9581;49.484;8.556;2023-07-24T12:25:07;23.80;99.90
18898;DHT22;9581;49.484;8.556;2023-07-24T12:27:34;23.90;99.90
18898;DHT22;9581;49.484;8.556;2023-07-24T12:30:01;23.80;99.90
18898;DHT22;9581;49.484;8.556;2023-07-24T12:32:28;23.70;99.90
18898;DHT22;9581;49.484;8.556;2023-07-24T12:34:56;23.80;99.90
18898;DHT22;9581;49.484;8.556;2023-07-24T12:37:23;24.10;99.90
18898;DHT22;9581;49.484;8.556;2023-07-24T12:39:50;24.60;99.90
18898;DHT22;9581;49.484;8.556;2023-07-24T12:42:17;24.40;99.90
18898;DHT22;9581;49.484;8.556;2023-07-24T12:44:44;24.50;99.90
18898;DHT22;9581;49.484;8.556;2023-07-24T12:47:11;25.00;99.90
18898;DHT22;9581;49.484;8.556;2023-07-24T12:49:38;25.20;99.90
18898;DHT22;9581;49.484;8.556;2023-07-24T12:52:07;25.50;99.90
18898;DHT22;9581;49.484;8.556;2023-07-24T12:54:34;25.40;99.90
18898;DHT22;9581;49.484;8.556;2023-07-24T12:57:01;25.10;99.90
18898;DHT22;9581;49.484;8.556;2023-07-24T12:59:28;25.20;99.90
18898;DHT22;9581;49.484;8.556;2023-07-24T13:01:55;24.80;99.90
18898;DHT22;9581;49.484;8.556;2023-07-24T13:04:22;25.30;99.90
18898;DHT22;9581;49.484;8.556;2023-07-24T13:06:49;25.50;99.90
18898;DHT22;9581;49.484;8.556;2023-07-24T13:09:18;24.80;99.90
18898;DHT22;9581;49.484;8.556;2023-07-24T13:11:45;24.80;99.90
18898;DHT22;9581;49.484;8.556;2023-07-24T13:14:14;26.10;99.90
18898;DHT22;9581;49.484;8.556;2023-07-24T13:16:40;26.50;99.90
18898;DHT22;9581;49.484;8.556;2023-07-24T13:19:07;25.80;99.90
18898;DHT22;9581;49.484;8.556;2023-07-24T13:21:34;26.10;99.90
18898;DHT22;9581;49.484;8.556;2023-07-24T13:24:01;26.10;99.90
18898;DHT22;9581;49.484;8.556;2023-07-24T13:26:29;25.70;99.90
18898;DHT22;9581;49.484;8.556;2023-07-24T13:28:56;26.50;99.90
18898;DHT22;9581;49.484;8.556;2023-07-24T13:31:22;26.40;99.90
18898;DHT22;9581;49.484;8.556;2023-07-24T13:33:49;27.10;99.90
18898;DHT22;9581;49.484;8.556;2023-07-24T13:36:16;26.50;99.90
18898;DHT22;9581;49.484;8.556;2023-07-24T13:38:43;26.10;99.90
18898;DHT22;9581;49.484;8.556;2023-07-24T13:41:10;26.50;99.90
18898;DHT22;9581;49.484;8.556;2023-07-24T13:43:38;26.10;99.90
18898;DHT22;9581;49.484;8.556;2023-07-24T13:46:05;26.60;99.90
18898;DHT22;9581;49.484;8.556;2023-07-24T13:48:33;25.90;99.90
18898;DHT22;9581;49.484;8.556;2023-07-24T13:51:00;25.70;99.90
18898;DHT22;9581;49.484;8.556;2023-07-24T13:53:27;25.50;99.90
18898;DHT22;9581;49.484;8.556;2023-07-24T13:55:54;25.70;99.90
18898;DHT22;9581;49.484;8.556;2023-07-24T13:58:20;25.50;99.90
18898;DHT22;9581;49.484;8.556;2023-07-24T14:00:49;25.20;99.90
18898;DHT22;9581;49.484;8.556;2023-07-24T14:03:15;25.30;99.90
18898;DHT22;9581;49.484;8.556;2023-07-24T14:05:42;25.30;99.90
18898;DHT22;9581;49.484;8.556;2023-07-24T14:08:09;25.10;99.90
18898;DHT22;9581;49.484;8.556;2023-07-24T14:10:37;24.70;99.90
18898;DHT22;9581;49.484;8.556;2023-07-24T14:13:04;24.60;99.90
18898;DHT22;9581;49.484;8.556;2023-07-24T14:15:30;24.60;99.90
18898;DHT22;9581;49.484;8.556;2023-07-24T14:17:59;24.50;99.90
18898;DHT22;9581;49.484;8.556;2023-07-24T14:20:25;24.40;99.90
18898;DHT22;9581;49.484;8.556;2023-07-24T14:22:52;23.80;99.90
18898;DHT22;9581;49.484;8.556;2023-07-24T14:25:19;23.90;99.90
18898;DHT22;9581;49.484;8.556;2023-07-24T14:27:46;23.70;99.90
18898;DHT22;9581;49.484;8.556;2023-07-24T14:30:12;23.60;99.90
18898;DHT22;9581;49.484;8.556;2023-07-24T14:32:39;23.40;99.90
18898;DHT22;9581;49.484;8.556;2023-07-24T14:35:08;23.30;99.90
18898;DHT22;9581;49.484;8.556;2023-07-24T14:37:34;23.10;99.90
18898;DHT22;9581;49.484;8.556;2023-07-24T14:40:01;23.00;99.90
18898;DHT22;9581;49.484;8.556;2023-07-24T14:42:29;23.00;99.90
18898;DHT22;9581;49.484;8.556;2023-07-24T14:44:56;23.00;99.90
18898;DHT22;9581;49.484;8.556;2023-07-24T14:47:27;23.20;99.90
18898;DHT22;9581;49.484;8.556;2023-07-24T14:49:54;23.20;99.90
18898;DHT22;9581;49.484;8.556;2023-07-24T14:52:22;23.30;99.90
18898;DHT22;9581;49.484;8.556;2023-07-24T14:54:49;23.60;99.90
18898;DHT22;9581;49.484;8.556;2023-07-24T14:57:16;23.40;99.90
18898;DHT22;9581;49.484;8.556;2023-07-24T14:59:43;23.20;99.90
18898;DHT22;9581;49.484;8.556;2023-07-24T15:02:11;23.30;99.90
18898;DHT22;9581;49.484;8.556;2023-07-24T15:04:38;23.00;99.90
18898;DHT22;9581;49.484;8.556;2023-07-24T15:07:05;22.80;99.90
18898;DHT22;9581;49.484;8.556;2023-07-24T15:09:33;22.60;99.90
18898;DHT22;9581;49.484;8.556;2023-07-24T15:12:00;22.20;99.90
18898;DHT22;9581;49.484;8.556;2023-07-24T15:14:26;22.30;99.90
18898;DHT22;9581;49.484;8.556;2023-07-24T15:16:53;22.40;99.90
18898;DHT22;9581;49.484;8.556;2023-07-24T15:19:20;23.20;99.90
18898;DHT22;9581;49.484;8.556;2023-07-24T15:21:47;23.30;99.90
18898;DHT22;9581;49.484;8.556;2023-07-24T15:24:13;23.90;99.90
18898;DHT22;9581;49.484;8.556;2023-07-24T15:26:44;25.10;99.90
18898;DHT22;9581;49.484;8.556;2023-07-24T15:29:11;24.50;99.90
18898;DHT22;9581;49.484;8.556;2023-07-24T15:31:40;24.00;99.90
18898;DHT22;9581;49.484;8.556;2023-07-24T15:34:07;24.00;99.90
18898;DHT22;9581;49.484;8.556;2023-07-24T15:36:34;24.20;99.90
18898;DHT22;9581;49.484;8.556;2023-07-24T15:39:02;24.00;99.90
18898;DHT22;9581;49.484;8.556;2023-07-24T15:41:29;25.60;99.90
18898;DHT22;9581;49.484;8.556;2023-07-24T15:43:58;24.90;99.90
18898;DHT22;9581;49.484;8.556;2023-07-24T15:46:25;24.10;99.90
18898;DHT22;9581;49.484;8.556;2023-07-24T15:48:54;23.70;99.90